sensor_id;sensor_type;location;lat;lon;timestamp;P1;durP1;ratioP1;P2;durP2;ratioP2
62990;SDS011;49084;48.204;16.202;2022-11-22T00:45:39;152.45;;;27.50;;
62990;SDS011;49084;48.204;16.202;2022-11-22T01:25:36;89.13;;;26.02;;
62990;SDS011;49084;48.204;16.202;2022-11-22T02:27:28;67.82;;;20.13;;
62990;SDS011;49084;48.204;16.202;2022-11-22T02:33:22;74.20;;;19.83;;
62990;SDS011;49084;48.204;16.202;2022-11-22T02:35:50;108.38;;;21.17;;
62990;SDS011;49084;48.204;16.202;2022-11-22T02:38:16;67.60;;;19.40;;
62990;SDS011;49084;48.204;16.202;2022-11-22T03:55:04;60.67;;;21.80;;
62990;SDS011;49084;48.204;16.202;2022-11-22T04:07:48;53.15;;;20.20;;
62990;SDS011;49084;48.204;16.202;2022-11-22T04:34:04;48.50;;;19.58;;
62990;SDS011;49084;48.204;16.202;2022-11-22T04:46:41;40.67;;;17.75;;
62990;SDS011;49084;48.204;16.202;2022-11-22T04:52:35;40.20;;;17.80;;
62990;SDS011;49084;48.204;16.202;2022-11-22T04:55:19;37.35;;;18.27;;
62990;SDS011;49084;48.204;16.202;2022-11-22T05:04:51;43.65;;;19.27;;
62990;SDS011;49084;48.204;16.202;2022-11-22T05:14:19;39.05;;;17.45;;
62990;SDS011;49084;48.204;16.202;2022-11-22T05:20:06;34.17;;;16.33;;
62990;SDS011;49084;48.204;16.202;2022-11-22T05:22:33;37.63;;;17.67;;
62990;SDS011;49084;48.204;16.202;2022-11-22T05:25:19;42.58;;;18.65;;
62990;SDS011;49084;48.204;16.202;2022-11-22T05:27:45;47.72;;;18.83;;
62990;SDS011;49084;48.204;16.202;2022-11-22T05:30:10;42.15;;;18.33;;
62990;SDS011;49084;48.204;16.202;2022-11-22T05:32:36;38.08;;;16.67;;
62990;SDS011;49084;48.204;16.202;2022-11-22T05:35:02;43.30;;;17.77;;
62990;SDS011;49084;48.204;16.202;2022-11-22T05:37:28;39.05;;;18.30;;
62990;SDS011;49084;48.204;16.202;2022-11-22T05:39:54;44.97;;;19.45;;
62990;SDS011;49084;48.204;16.202;2022-11-22T05:42:19;42.25;;;17.13;;
62990;SDS011;49084;48.204;16.202;2022-11-22T05:44:45;39.17;;;19.33;;
62990;SDS011;49084;48.204;16.202;2022-11-22T05:50:46;41.55;;;18.15;;
62990;SDS011;49084;48.204;16.202;2022-11-22T05:53:12;39.97;;;18.98;;
62990;SDS011;49084;48.204;16.202;2022-11-22T05:55:37;38.75;;;17.67;;
62990;SDS011;49084;48.204;16.202;2022-11-22T05:58:03;41.63;;;19.02;;
62990;SDS011;49084;48.204;16.202;2022-11-22T06:00:29;37.97;;;17.83;;
62990;SDS011;49084;48.204;16.202;2022-11-22T06:03:00;41.10;;;18.92;;
62990;SDS011;49084;48.204;16.202;2022-11-22T06:05:27;46.10;;;18.33;;
62990;SDS011;49084;48.204;16.202;2022-11-22T06:07:57;40.42;;;19.23;;
62990;SDS011;49084;48.204;16.202;2022-11-22T06:10:24;39.65;;;18.48;;
62990;SDS011;49084;48.204;16.202;2022-11-22T06:19:03;34.40;;;16.30;;
62990;SDS011;49084;48.204;16.202;2022-11-22T06:21:28;39.60;;;17.40;;
62990;SDS011;49084;48.204;16.202;2022-11-22T06:23:54;36.58;;;18.15;;
62990;SDS011;49084;48.204;16.202;2022-11-22T06:26:21;37.58;;;16.45;;
62990;SDS011;49084;48.204;16.202;2022-11-22T06:28:53;32.92;;;15.93;;
62990;SDS011;49084;48.204;16.202;2022-11-22T06:31:20;36.47;;;16.88;;
62990;SDS011;49084;48.204;16.202;2022-11-22T06:33:48;35.28;;;15.88;;
62990;SDS011;49084;48.204;16.202;2022-11-22T06:36:15;36.95;;;17.05;;
62990;SDS011;49084;48.204;16.202;2022-11-22T06:38:43;32.05;;;16.20;;
62990;SDS011;49084;48.204;16.202;2022-11-22T06:41:10;32.45;;;15.68;;
62990;SDS011;49084;48.204;16.202;2022-11-22T06:43:42;34.33;;;16.23;;
62990;SDS011;49084;48.204;16.202;2022-11-22T06:49:14;34.05;;;15.27;;
62990;SDS011;49084;48.204;16.202;2022-11-22T06:51:40;40.65;;;17.42;;
62990;SDS011;49084;48.204;16.202;2022-11-22T06:54:05;35.55;;;16.38;;
62990;SDS011;49084;48.204;16.202;2022-11-22T06:56:35;36.10;;;17.55;;
62990;SDS011;49084;48.204;16.202;2022-11-22T06:59:04;36.13;;;17.33;;
62990;SDS011;49084;48.204;16.202;2022-11-22T07:01:31;41.40;;;18.02;;
62990;SDS011;49084;48.204;16.202;2022-11-22T07:03:57;37.13;;;16.52;;
62990;SDS011;49084;48.204;16.202;2022-11-22T07:06:29;34.53;;;16.95;;
62990;SDS011;49084;48.204;16.202;2022-11-22T07:08:56;39.17;;;17.52;;
62990;SDS011;49084;48.204;16.202;2022-11-22T07:11:24;36.63;;;17.45;;
62990;SDS011;49084;48.204;16.202;2022-11-22T07:13:52;38.92;;;16.98;;
62990;SDS011;49084;48.204;16.202;2022-11-22T07:16:20;39.78;;;18.13;;
62990;SDS011;49084;48.204;16.202;2022-11-22T07:18:46;40.42;;;18.13;;
62990;SDS011;49084;48.204;16.202;2022-11-22T07:21:13;37.88;;;16.73;;
62990;SDS011;49084;48.204;16.202;2022-11-22T07:23:43;39.30;;;17.75;;
62990;SDS011;49084;48.204;16.202;2022-11-22T07:29:19;38.20;;;17.85;;
62990;SDS011;49084;48.204;16.202;2022-11-22T07:31:45;39.58;;;17.63;;
62990;SDS011;49084;48.204;16.202;2022-11-22T07:34:10;40.42;;;18.23;;
62990;SDS011;49084;48.204;16.202;2022-11-22T07:36:36;37.60;;;17.35;;
62990;SDS011;49084;48.204;16.202;2022-11-22T07:39:02;36.78;;;17.13;;
62990;SDS011;49084;48.204;16.202;2022-11-22T07:41:27;37.10;;;17.27;;
62990;SDS011;49084;48.204;16.202;2022-11-22T07:43:53;36.95;;;17.30;;
62990;SDS011;49084;48.204;16.202;2022-11-22T07:46:23;34.28;;;17.50;;
62990;SDS011;49084;48.204;16.202;2022-11-22T07:48:55;32.50;;;16.70;;
62990;SDS011;49084;48.204;16.202;2022-11-22T07:51:22;37.10;;;16.13;;
62990;SDS011;49084;48.204;16.202;2022-11-22T07:53:47;36.17;;;17.42;;
62990;SDS011;49084;48.204;16.202;2022-11-22T07:56:13;35.45;;;16.85;;
62990;SDS011;49084;48.204;16.202;2022-11-22T07:58:39;34.90;;;17.50;;
62990;SDS011;49084;48.204;16.202;2022-11-22T08:01:09;33.65;;;16.75;;
62990;SDS011;49084;48.204;16.202;2022-11-22T08:03:36;36.75;;;17.17;;
62990;SDS011;49084;48.204;16.202;2022-11-22T08:06:03;32.47;;;15.45;;
62990;SDS011;49084;48.204;16.202;2022-11-22T08:11:54;38.13;;;17.77;;
62990;SDS011;49084;48.204;16.202;2022-11-22T08:14:25;31.25;;;15.25;;
62990;SDS011;49084;48.204;16.202;2022-11-22T08:16:51;33.55;;;16.48;;
62990;SDS011;49084;48.204;16.202;2022-11-22T08:19:16;31.88;;;15.27;;
62990;SDS011;49084;48.204;16.202;2022-11-22T08:21:46;31.17;;;15.93;;
62990;SDS011;49084;48.204;16.202;2022-11-22T08:24:13;34.88;;;17.45;;
62990;SDS011;49084;48.204;16.202;2022-11-22T08:26:39;38.65;;;16.67;;
62990;SDS011;49084;48.204;16.202;2022-11-22T08:29:05;34.47;;;16.58;;
62990;SDS011;49084;48.204;16.202;2022-11-22T08:31:33;31.67;;;15.80;;
62990;SDS011;49084;48.204;16.202;2022-11-22T08:33:59;34.10;;;16.83;;
62990;SDS011;49084;48.204;16.202;2022-11-22T08:36:27;29.50;;;16.42;;
62990;SDS011;49084;48.204;16.202;2022-11-22T08:38:53;31.77;;;16.67;;
62990;SDS011;49084;48.204;16.202;2022-11-22T08:41:19;38.63;;;16.63;;
62990;SDS011;49084;48.204;16.202;2022-11-22T08:43:48;36.95;;;16.60;;
62990;SDS011;49084;48.204;16.202;2022-11-22T08:46:14;32.58;;;16.38;;
62990;SDS011;49084;48.204;16.202;2022-11-22T08:48:41;32.90;;;15.20;;
62990;SDS011;49084;48.204;16.202;2022-11-22T08:51:08;29.52;;;15.82;;
62990;SDS011;49084;48.204;16.202;2022-11-22T08:53:38;34.90;;;16.33;;
62990;SDS011;49084;48.204;16.202;2022-11-22T08:56:06;34.13;;;16.45;;
62990;SDS011;49084;48.204;16.202;2022-11-22T08:58:35;27.60;;;14.73;;
62990;SDS011;49084;48.204;16.202;2022-11-22T09:01:09;32.75;;;16.15;;
62990;SDS011;49084;48.204;16.202;2022-11-22T09:03:37;32.22;;;15.35;;
62990;SDS011;49084;48.204;16.202;2022-11-22T09:06:05;29.17;;;14.70;;
62990;SDS011;49084;48.204;16.202;2022-11-22T09:08:32;27.75;;;15.13;;
62990;SDS011;49084;48.204;16.202;2022-11-22T09:10:59;32.15;;;16.73;;
62990;SDS011;49084;48.204;16.202;2022-11-22T09:13:26;33.13;;;16.75;;
62990;SDS011;49084;48.204;16.202;2022-11-22T09:15:52;35.00;;;17.70;;
62990;SDS011;49084;48.204;16.202;2022-11-22T09:18:18;39.33;;;18.70;;
62990;SDS011;49084;48.204;16.202;2022-11-22T09:20:44;31.85;;;17.38;;
62990;SDS011;49084;48.204;16.202;2022-11-22T09:23:10;40.38;;;18.73;;
62990;SDS011;49084;48.204;16.202;2022-11-22T09:25:35;32.85;;;16.95;;
62990;SDS011;49084;48.204;16.202;2022-11-22T09:28:01;35.70;;;17.98;;
62990;SDS011;49084;48.204;16.202;2022-11-22T09:30:27;35.60;;;18.90;;
62990;SDS011;49084;48.204;16.202;2022-11-22T09:32:53;37.72;;;18.65;;
62990;SDS011;49084;48.204;16.202;2022-11-22T09:35:19;37.53;;;19.05;;
62990;SDS011;49084;48.204;16.202;2022-11-22T09:37:45;39.58;;;18.35;;
62990;SDS011;49084;48.204;16.202;2022-11-22T09:40:11;40.70;;;19.70;;
62990;SDS011;49084;48.204;16.202;2022-11-22T09:50:23;40.92;;;19.77;;
62990;SDS011;49084;48.204;16.202;2022-11-22T09:53:18;38.88;;;17.95;;
62990;SDS011;49084;48.204;16.202;2022-11-22T09:55:51;38.13;;;17.90;;
62990;SDS011;49084;48.204;16.202;2022-11-22T09:58:27;36.97;;;17.55;;
62990;SDS011;49084;48.204;16.202;2022-11-22T10:00:55;32.55;;;17.63;;
62990;SDS011;49084;48.204;16.202;2022-11-22T10:06:18;30.00;;;17.05;;
62990;SDS011;49084;48.204;16.202;2022-11-22T10:08:59;37.80;;;18.67;;
62990;SDS011;49084;48.204;16.202;2022-11-22T10:12:18;34.75;;;18.58;;
62990;SDS011;49084;48.204;16.202;2022-11-22T10:15:34;31.70;;;17.33;;
62990;SDS011;49084;48.204;16.202;2022-11-22T10:21:21;41.22;;;18.95;;
62990;SDS011;49084;48.204;16.202;2022-11-22T10:23:47;41.38;;;20.83;;
62990;SDS011;49084;48.204;16.202;2022-11-22T10:31:49;35.83;;;19.10;;
62990;SDS011;49084;48.204;16.202;2022-11-22T10:34:39;40.38;;;17.58;;
62990;SDS011;49084;48.204;16.202;2022-11-22T10:42:45;39.13;;;18.77;;
62990;SDS011;49084;48.204;16.202;2022-11-22T10:45:39;37.00;;;20.05;;
62990;SDS011;49084;48.204;16.202;2022-11-22T10:48:36;40.78;;;19.33;;
62990;SDS011;49084;48.204;16.202;2022-11-22T10:51:32;34.88;;;19.95;;
62990;SDS011;49084;48.204;16.202;2022-11-22T11:04:26;38.35;;;19.77;;
62990;SDS011;49084;48.204;16.202;2022-11-22T11:06:56;42.75;;;21.40;;
62990;SDS011;49084;48.204;16.202;2022-11-22T11:09:32;36.95;;;21.30;;
62990;SDS011;49084;48.204;16.202;2022-11-22T11:12:00;39.92;;;21.73;;
62990;SDS011;49084;48.204;16.202;2022-11-22T11:16:58;43.08;;;21.30;;
62990;SDS011;49084;48.204;16.202;2022-11-22T11:19:25;39.20;;;20.40;;
62990;SDS011;49084;48.204;16.202;2022-11-22T11:24:44;35.15;;;19.52;;
62990;SDS011;49084;48.204;16.202;2022-11-22T11:27:11;35.92;;;20.40;;
62990;SDS011;49084;48.204;16.202;2022-11-22T11:32:17;37.10;;;20.52;;
62990;SDS011;49084;48.204;16.202;2022-11-22T11:38:25;38.33;;;20.88;;
62990;SDS011;49084;48.204;16.202;2022-11-22T11:40:51;34.10;;;20.05;;
62990;SDS011;49084;48.204;16.202;2022-11-22T11:43:18;45.85;;;21.10;;
62990;SDS011;49084;48.204;16.202;2022-11-22T11:45:45;36.92;;;19.90;;
62990;SDS011;49084;48.204;16.202;2022-11-22T11:48:24;34.67;;;19.33;;
62990;SDS011;49084;48.204;16.202;2022-11-22T11:51:23;36.95;;;19.92;;
62990;SDS011;49084;48.204;16.202;2022-11-22T11:57:03;32.72;;;19.70;;
62990;SDS011;49084;48.204;16.202;2022-11-22T12:08:24;37.08;;;18.77;;
62990;SDS011;49084;48.204;16.202;2022-11-22T12:14:50;36.17;;;20.13;;
62990;SDS011;49084;48.204;16.202;2022-11-22T12:27:07;41.13;;;21.42;;
62990;SDS011;49084;48.204;16.202;2022-11-22T12:29:34;36.13;;;20.42;;
62990;SDS011;49084;48.204;16.202;2022-11-22T12:32:05;45.75;;;23.05;;
62990;SDS011;49084;48.204;16.202;2022-11-22T12:34:41;47.08;;;25.20;;
62990;SDS011;49084;48.204;16.202;2022-11-22T12:37:18;101.57;;;42.70;;
62990;SDS011;49084;48.204;16.202;2022-11-22T12:39:52;41.58;;;23.90;;
62990;SDS011;49084;48.204;16.202;2022-11-22T12:42:22;41.30;;;21.95;;
62990;SDS011;49084;48.204;16.202;2022-11-22T12:45:31;36.15;;;21.52;;
62990;SDS011;49084;48.204;16.202;2022-11-22T12:48:03;37.40;;;21.00;;
62990;SDS011;49084;48.204;16.202;2022-11-22T12:50:40;35.20;;;21.10;;
62990;SDS011;49084;48.204;16.202;2022-11-22T13:16:32;31.45;;;16.83;;
62990;SDS011;49084;48.204;16.202;2022-11-22T13:32:17;31.60;;;15.75;;
62990;SDS011;49084;48.204;16.202;2022-11-22T13:35:04;30.73;;;17.02;;
62990;SDS011;49084;48.204;16.202;2022-11-22T13:52:57;31.95;;;18.27;;
62990;SDS011;49084;48.204;16.202;2022-11-22T14:19:16;42.80;;;24.98;;
62990;SDS011;49084;48.204;16.202;2022-11-22T14:35:15;42.40;;;26.75;;
62990;SDS011;49084;48.204;16.202;2022-11-22T14:37:45;40.33;;;24.98;;
62990;SDS011;49084;48.204;16.202;2022-11-22T14:42:57;41.13;;;24.63;;
62990;SDS011;49084;48.204;16.202;2022-11-22T14:45:34;39.53;;;22.88;;
62990;SDS011;49084;48.204;16.202;2022-11-22T14:48:14;39.67;;;24.48;;
62990;SDS011;49084;48.204;16.202;2022-11-22T14:50:53;41.75;;;25.52;;
62990;SDS011;49084;48.204;16.202;2022-11-22T14:56:06;34.35;;;22.42;;
62990;SDS011;49084;48.204;16.202;2022-11-22T14:58:34;43.15;;;24.65;;
62990;SDS011;49084;48.204;16.202;2022-11-22T15:15:34;41.03;;;23.30;;
62990;SDS011;49084;48.204;16.202;2022-11-22T15:21:17;38.40;;;22.67;;
62990;SDS011;49084;48.204;16.202;2022-11-22T15:23:51;39.65;;;22.73;;
62990;SDS011;49084;48.204;16.202;2022-11-22T15:26:21;46.22;;;24.13;;
62990;SDS011;49084;48.204;16.202;2022-11-22T15:28:52;42.17;;;24.73;;
62990;SDS011;49084;48.204;16.202;2022-11-22T15:34:18;38.15;;;22.55;;
62990;SDS011;49084;48.204;16.202;2022-11-22T15:42:33;39.45;;;22.98;;
62990;SDS011;49084;48.204;16.202;2022-11-22T15:44:58;37.50;;;21.65;;
62990;SDS011;49084;48.204;16.202;2022-11-22T15:47:24;37.03;;;22.52;;
62990;SDS011;49084;48.204;16.202;2022-11-22T15:49:51;38.95;;;24.45;;
62990;SDS011;49084;48.204;16.202;2022-11-22T15:52:24;37.15;;;22.42;;
62990;SDS011;49084;48.204;16.202;2022-11-22T15:54:54;42.15;;;22.95;;
62990;SDS011;49084;48.204;16.202;2022-11-22T15:57:25;36.00;;;22.55;;
62990;SDS011;49084;48.204;16.202;2022-11-22T15:59:55;38.28;;;22.40;;
62990;SDS011;49084;48.204;16.202;2022-11-22T16:02:26;34.67;;;21.85;;
62990;SDS011;49084;48.204;16.202;2022-11-22T16:07:32;34.55;;;20.77;;
62990;SDS011;49084;48.204;16.202;2022-11-22T16:10:05;34.83;;;21.98;;
62990;SDS011;49084;48.204;16.202;2022-11-22T16:12:46;36.58;;;22.33;;
62990;SDS011;49084;48.204;16.202;2022-11-22T16:15:32;34.47;;;22.05;;
62990;SDS011;49084;48.204;16.202;2022-11-22T16:18:16;35.17;;;23.35;;
62990;SDS011;49084;48.204;16.202;2022-11-22T16:21:18;36.60;;;21.48;;
62990;SDS011;49084;48.204;16.202;2022-11-22T16:23:46;37.65;;;22.17;;
62990;SDS011;49084;48.204;16.202;2022-11-22T16:26:31;33.63;;;21.85;;
62990;SDS011;49084;48.204;16.202;2022-11-22T16:31:41;34.65;;;20.17;;
62990;SDS011;49084;48.204;16.202;2022-11-22T16:34:10;31.35;;;18.98;;
62990;SDS011;49084;48.204;16.202;2022-11-22T16:36:40;33.75;;;19.90;;
62990;SDS011;49084;48.204;16.202;2022-11-22T16:39:06;35.85;;;19.67;;
62990;SDS011;49084;48.204;16.202;2022-11-22T16:41:33;31.23;;;19.35;;
62990;SDS011;49084;48.204;16.202;2022-11-22T16:44:09;31.50;;;19.35;;
62990;SDS011;49084;48.204;16.202;2022-11-22T16:46:37;34.60;;;19.23;;
62990;SDS011;49084;48.204;16.202;2022-11-22T16:49:22;29.15;;;18.27;;
62990;SDS011;49084;48.204;16.202;2022-11-22T16:51:48;30.95;;;18.73;;
62990;SDS011;49084;48.204;16.202;2022-11-22T16:54:18;28.92;;;18.48;;
62990;SDS011;49084;48.204;16.202;2022-11-22T16:56:45;34.47;;;23.70;;
62990;SDS011;49084;48.204;16.202;2022-11-22T16:59:11;35.20;;;25.00;;
62990;SDS011;49084;48.204;16.202;2022-11-22T17:01:37;33.33;;;20.73;;
62990;SDS011;49084;48.204;16.202;2022-11-22T17:04:05;32.08;;;19.45;;
62990;SDS011;49084;48.204;16.202;2022-11-22T17:06:33;32.22;;;19.70;;
62990;SDS011;49084;48.204;16.202;2022-11-22T17:08:59;34.42;;;19.10;;
62990;SDS011;49084;48.204;16.202;2022-11-22T17:11:26;35.65;;;19.95;;
62990;SDS011;49084;48.204;16.202;2022-11-22T17:13:57;31.58;;;18.70;;
62990;SDS011;49084;48.204;16.202;2022-11-22T17:16:23;35.25;;;19.48;;
62990;SDS011;49084;48.204;16.202;2022-11-22T17:18:49;34.38;;;20.05;;
62990;SDS011;49084;48.204;16.202;2022-11-22T17:21:22;32.80;;;19.90;;
62990;SDS011;49084;48.204;16.202;2022-11-22T17:23:51;33.28;;;19.63;;
62990;SDS011;49084;48.204;16.202;2022-11-22T17:26:21;33.30;;;19.98;;
62990;SDS011;49084;48.204;16.202;2022-11-22T17:28:47;35.60;;;19.23;;
62990;SDS011;49084;48.204;16.202;2022-11-22T17:31:14;35.47;;;18.98;;
62990;SDS011;49084;48.204;16.202;2022-11-22T17:33:42;45.08;;;25.75;;
62990;SDS011;49084;48.204;16.202;2022-11-22T17:36:29;33.30;;;18.50;;
62990;SDS011;49084;48.204;16.202;2022-11-22T17:38:59;34.28;;;18.95;;
62990;SDS011;49084;48.204;16.202;2022-11-22T17:41:30;33.35;;;19.52;;
62990;SDS011;49084;48.204;16.202;2022-11-22T17:43:57;38.25;;;20.80;;
62990;SDS011;49084;48.204;16.202;2022-11-22T17:46:24;36.33;;;19.42;;
62990;SDS011;49084;48.204;16.202;2022-11-22T17:48:51;32.20;;;19.80;;
62990;SDS011;49084;48.204;16.202;2022-11-22T17:51:18;34.92;;;20.17;;
62990;SDS011;49084;48.204;16.202;2022-11-22T17:53:45;33.38;;;19.92;;
62990;SDS011;49084;48.204;16.202;2022-11-22T17:56:12;31.85;;;18.70;;
62990;SDS011;49084;48.204;16.202;2022-11-22T17:58:38;29.25;;;17.92;;
62990;SDS011;49084;48.204;16.202;2022-11-22T18:01:08;32.80;;;19.45;;
62990;SDS011;49084;48.204;16.202;2022-11-22T18:03:35;35.63;;;20.08;;
62990;SDS011;49084;48.204;16.202;2022-11-22T18:06:01;35.30;;;20.30;;
62990;SDS011;49084;48.204;16.202;2022-11-22T18:08:27;39.75;;;20.77;;
62990;SDS011;49084;48.204;16.202;2022-11-22T18:10:55;31.00;;;18.20;;
62990;SDS011;49084;48.204;16.202;2022-11-22T18:13:24;35.17;;;19.95;;
62990;SDS011;49084;48.204;16.202;2022-11-22T18:15:54;37.33;;;20.35;;
62990;SDS011;49084;48.204;16.202;2022-11-22T18:18:22;34.92;;;19.02;;
62990;SDS011;49084;48.204;16.202;2022-11-22T18:20:48;32.80;;;18.80;;
62990;SDS011;49084;48.204;16.202;2022-11-22T18:23:16;32.50;;;18.07;;
62990;SDS011;49084;48.204;16.202;2022-11-22T18:25:42;35.55;;;20.75;;
62990;SDS011;49084;48.204;16.202;2022-11-22T18:28:08;33.10;;;19.10;;
62990;SDS011;49084;48.204;16.202;2022-11-22T18:30:34;33.35;;;18.50;;
62990;SDS011;49084;48.204;16.202;2022-11-22T18:33:02;40.72;;;21.27;;
62990;SDS011;49084;48.204;16.202;2022-11-22T18:35:29;33.72;;;19.20;;
62990;SDS011;49084;48.204;16.202;2022-11-22T18:37:55;37.63;;;20.02;;
62990;SDS011;49084;48.204;16.202;2022-11-22T18:40:22;34.70;;;19.10;;
62990;SDS011;49084;48.204;16.202;2022-11-22T18:42:48;34.42;;;20.08;;
62990;SDS011;49084;48.204;16.202;2022-11-22T18:45:18;33.17;;;19.08;;
62990;SDS011;49084;48.204;16.202;2022-11-22T18:47:46;34.80;;;19.38;;
62990;SDS011;49084;48.204;16.202;2022-11-22T18:50:12;34.13;;;20.05;;
62990;SDS011;49084;48.204;16.202;2022-11-22T18:52:39;35.05;;;19.77;;
62990;SDS011;49084;48.204;16.202;2022-11-22T18:55:07;35.70;;;19.42;;
62990;SDS011;49084;48.204;16.202;2022-11-22T18:57:33;35.25;;;19.15;;
62990;SDS011;49084;48.204;16.202;2022-11-22T18:59:59;33.08;;;19.85;;
62990;SDS011;49084;48.204;16.202;2022-11-22T19:02:31;33.53;;;19.33;;
62990;SDS011;49084;48.204;16.202;2022-11-22T19:04:57;32.35;;;20.13;;
62990;SDS011;49084;48.204;16.202;2022-11-22T19:07:23;34.35;;;20.02;;
62990;SDS011;49084;48.204;16.202;2022-11-22T19:09:50;34.80;;;19.15;;
62990;SDS011;49084;48.204;16.202;2022-11-22T19:12:16;31.67;;;19.20;;
62990;SDS011;49084;48.204;16.202;2022-11-22T19:14:42;35.35;;;20.00;;
62990;SDS011;49084;48.204;16.202;2022-11-22T19:17:09;35.30;;;19.20;;
62990;SDS011;49084;48.204;16.202;2022-11-22T19:19:39;33.75;;;18.25;;
62990;SDS011;49084;48.204;16.202;2022-11-22T19:22:05;31.65;;;18.73;;
62990;SDS011;49084;48.204;16.202;2022-11-22T19:24:32;32.47;;;19.30;;
62990;SDS011;49084;48.204;16.202;2022-11-22T19:26:58;36.30;;;20.23;;
62990;SDS011;49084;48.204;16.202;2022-11-22T19:29:24;40.05;;;19.35;;
62990;SDS011;49084;48.204;16.202;2022-11-22T19:31:51;31.38;;;19.10;;
62990;SDS011;49084;48.204;16.202;2022-11-22T19:34:17;34.92;;;19.48;;
62990;SDS011;49084;48.204;16.202;2022-11-22T19:36:44;32.13;;;18.52;;
62990;SDS011;49084;48.204;16.202;2022-11-22T19:39:10;33.75;;;20.23;;
62990;SDS011;49084;48.204;16.202;2022-11-22T19:41:39;33.55;;;20.00;;
62990;SDS011;49084;48.204;16.202;2022-11-22T19:44:06;40.17;;;20.80;;
62990;SDS011;49084;48.204;16.202;2022-11-22T19:46:32;35.42;;;19.45;;
62990;SDS011;49084;48.204;16.202;2022-11-22T19:48:58;31.83;;;19.08;;
62990;SDS011;49084;48.204;16.202;2022-11-22T19:53:55;32.55;;;18.42;;
62990;SDS011;49084;48.204;16.202;2022-11-22T19:56:35;38.42;;;21.02;;
62990;SDS011;49084;48.204;16.202;2022-11-22T19:59:03;39.92;;;21.90;;
62990;SDS011;49084;48.204;16.202;2022-11-22T20:01:32;32.65;;;19.77;;
62990;SDS011;49084;48.204;16.202;2022-11-22T20:04:00;38.80;;;21.58;;
62990;SDS011;49084;48.204;16.202;2022-11-22T20:06:28;35.88;;;21.27;;
62990;SDS011;49084;48.204;16.202;2022-11-22T20:08:59;39.00;;;21.35;;
62990;SDS011;49084;48.204;16.202;2022-11-22T20:11:39;41.50;;;22.33;;
62990;SDS011;49084;48.204;16.202;2022-11-22T20:14:07;40.50;;;22.85;;
62990;SDS011;49084;48.204;16.202;2022-11-22T20:16:33;37.13;;;22.38;;
62990;SDS011;49084;48.204;16.202;2022-11-22T20:19:02;37.92;;;22.23;;
62990;SDS011;49084;48.204;16.202;2022-11-22T20:21:31;40.25;;;24.02;;
62990;SDS011;49084;48.204;16.202;2022-11-22T20:23:59;39.97;;;23.73;;
62990;SDS011;49084;48.204;16.202;2022-11-22T20:26:27;41.10;;;23.60;;
62990;SDS011;49084;48.204;16.202;2022-11-22T20:28:55;40.25;;;23.60;;
62990;SDS011;49084;48.204;16.202;2022-11-22T20:31:23;39.05;;;23.90;;
62990;SDS011;49084;48.204;16.202;2022-11-22T20:33:50;45.45;;;24.20;;
62990;SDS011;49084;48.204;16.202;2022-11-22T20:36:19;41.33;;;24.80;;
62990;SDS011;49084;48.204;16.202;2022-11-22T20:38:50;43.35;;;23.85;;
62990;SDS011;49084;48.204;16.202;2022-11-22T20:41:17;44.95;;;24.13;;
62990;SDS011;49084;48.204;16.202;2022-11-22T20:43:45;39.10;;;23.30;;
62990;SDS011;49084;48.204;16.202;2022-11-22T20:46:14;44.63;;;25.45;;
62990;SDS011;49084;48.204;16.202;2022-11-22T20:48:42;51.72;;;25.88;;
62990;SDS011;49084;48.204;16.202;2022-11-22T20:51:10;44.00;;;23.52;;
62990;SDS011;49084;48.204;16.202;2022-11-22T20:53:39;45.58;;;25.73;;
62990;SDS011;49084;48.204;16.202;2022-11-22T20:56:06;50.90;;;27.48;;
62990;SDS011;49084;48.204;16.202;2022-11-22T20:58:32;45.47;;;25.17;;
62990;SDS011;49084;48.204;16.202;2022-11-22T21:01:05;45.75;;;25.02;;
62990;SDS011;49084;48.204;16.202;2022-11-22T21:03:32;48.25;;;26.38;;
62990;SDS011;49084;48.204;16.202;2022-11-22T21:05:59;51.13;;;28.58;;
62990;SDS011;49084;48.204;16.202;2022-11-22T21:08:26;47.78;;;25.85;;
62990;SDS011;49084;48.204;16.202;2022-11-22T21:11:04;48.70;;;26.00;;
62990;SDS011;49084;48.204;16.202;2022-11-22T21:13:41;50.33;;;27.02;;
62990;SDS011;49084;48.204;16.202;2022-11-22T21:16:12;54.45;;;26.80;;
62990;SDS011;49084;48.204;16.202;2022-11-22T21:18:47;55.03;;;29.05;;
62990;SDS011;49084;48.204;16.202;2022-11-22T21:21:32;52.78;;;27.65;;
62990;SDS011;49084;48.204;16.202;2022-11-22T21:24:00;53.23;;;27.77;;
62990;SDS011;49084;48.204;16.202;2022-11-22T21:26:27;52.25;;;27.85;;
62990;SDS011;49084;48.204;16.202;2022-11-22T21:28:53;51.38;;;27.85;;
62990;SDS011;49084;48.204;16.202;2022-11-22T21:31:20;53.40;;;27.30;;
62990;SDS011;49084;48.204;16.202;2022-11-22T21:33:47;53.60;;;28.10;;
62990;SDS011;49084;48.204;16.202;2022-11-22T21:36:13;53.50;;;28.65;;
62990;SDS011;49084;48.204;16.202;2022-11-22T21:38:39;52.35;;;26.58;;
62990;SDS011;49084;48.204;16.202;2022-11-22T21:41:06;55.97;;;28.92;;
62990;SDS011;49084;48.204;16.202;2022-11-22T21:43:36;60.10;;;29.95;;
62990;SDS011;49084;48.204;16.202;2022-11-22T21:46:01;58.75;;;29.52;;
62990;SDS011;49084;48.204;16.202;2022-11-22T21:48:27;59.53;;;29.55;;
62990;SDS011;49084;48.204;16.202;2022-11-22T21:50:54;55.53;;;29.02;;
62990;SDS011;49084;48.204;16.202;2022-11-22T21:53:22;61.70;;;29.65;;
62990;SDS011;49084;48.204;16.202;2022-11-22T21:55:53;61.10;;;30.65;;
62990;SDS011;49084;48.204;16.202;2022-11-22T21:58:20;67.95;;;30.98;;
62990;SDS011;49084;48.204;16.202;2022-11-22T22:00:47;57.60;;;30.35;;
62990;SDS011;49084;48.204;16.202;2022-11-22T22:03:14;60.47;;;30.55;;
62990;SDS011;49084;48.204;16.202;2022-11-22T22:05:40;61.95;;;30.38;;
62990;SDS011;49084;48.204;16.202;2022-11-22T22:08:12;61.65;;;30.45;;
62990;SDS011;49084;48.204;16.202;2022-11-22T22:10:38;63.78;;;30.00;;
62990;SDS011;49084;48.204;16.202;2022-11-22T22:13:03;61.35;;;30.27;;
62990;SDS011;49084;48.204;16.202;2022-11-22T22:15:29;58.90;;;28.50;;
62990;SDS011;49084;48.204;16.202;2022-11-22T22:17:54;64.88;;;29.50;;
62990;SDS011;49084;48.204;16.202;2022-11-22T22:20:20;56.90;;;27.90;;
62990;SDS011;49084;48.204;16.202;2022-11-22T22:22:46;55.47;;;27.17;;
62990;SDS011;49084;48.204;16.202;2022-11-22T22:25:13;55.30;;;26.88;;
62990;SDS011;49084;48.204;16.202;2022-11-22T22:27:39;50.67;;;25.70;;
62990;SDS011;49084;48.204;16.202;2022-11-22T22:30:05;53.83;;;26.80;;
62990;SDS011;49084;48.204;16.202;2022-11-22T22:32:33;53.80;;;27.25;;
62990;SDS011;49084;48.204;16.202;2022-11-22T22:34:59;49.70;;;24.80;;
62990;SDS011;49084;48.204;16.202;2022-11-22T22:37:25;47.53;;;24.08;;
62990;SDS011;49084;48.204;16.202;2022-11-22T22:39:51;44.72;;;23.13;;
62990;SDS011;49084;48.204;16.202;2022-11-22T22:42:16;50.53;;;25.63;;
62990;SDS011;49084;48.204;16.202;2022-11-22T22:44:42;49.70;;;23.92;;
62990;SDS011;49084;48.204;16.202;2022-11-22T22:47:08;54.10;;;27.13;;